Time;durP1;ratioP1;P1;durP2;ratioP2;P2;SDS_P1;SDS_P2;PMS_P1;PMS_P2;Temp;Humidity;BMP_temperature;BMP_pressure;BME280_temperature;BME280_humidity;BME280_pressure;Samples;Min_cycle;Max_cycle;Signal;HPM_P1;HPM_P2
2023/01/19 00:00:11;;;;;;;0.85;0.85;;;;;;;1.80;82.57;94207.25;4323193;33;20268;-63
2023/01/19 00:02:37;;;;;;;2.33;2.22;;;;;;;1.99;81.87;94205.63;4319503;32;20212;-64
2023/01/19 00:05:03;;;;;;;1.90;1.87;;;;;;;1.72;82.36;94216.41;4340590;32;20189;-64
2023/01/19 00:07:30;;;;;;;1.12;1.02;;;;;;;1.59;82.85;94217.78;4342777;32;20203;-64
2023/01/19 00:09:56;;;;;;;1.63;1.63;;;;;;;1.89;82.01;94224.75;4327906;32;20212;-63
2023/01/19 00:12:21;;;;;;;1.53;1.53;;;;;;;1.68;82.62;94231.06;4294172;33;20318;-64
2023/01/19 00:14:46;;;;;;;1.93;1.83;;;;;;;1.76;82.32;94233.16;4321410;32;20190;-64
2023/01/19 00:17:12;;;;;;;2.13;1.93;;;;;;;1.72;81.93;94239.94;4313716;33;20202;-65
2023/01/19 00:19:37;;;;;;;1.60;1.57;;;;;;;1.58;81.76;94244.94;4339738;32;20197;-64
2023/01/19 00:22:06;;;;;;;2.40;2.30;;;;;;;1.55;82.29;94242.84;4325870;32;20197;-64
2023/01/19 00:24:49;;;;;;;1.17;1.17;;;;;;;1.66;81.69;94248.88;4321399;32;20197;-64
2023/01/19 00:27:16;;;;;;;1.67;1.57;;;;;;;1.82;80.48;94252.22;4305441;32;20301;-64
2023/01/19 00:29:42;;;;;;;2.03;1.92;;;;;;;1.73;80.92;94254.59;4348609;32;20193;-64
2023/01/19 00:32:07;;;;;;;2.47;2.37;;;;;;;1.69;81.04;94259.56;4341481;32;20219;-64
2023/01/19 00:34:41;;;;;;;2.60;2.50;;;;;;;1.63;81.99;94254.63;4341566;32;20289;-64
2023/01/19 00:37:08;;;;;;;2.08;1.98;;;;;;;1.66;81.29;94259.31;4318727;32;20212;-63
2023/01/19 00:39:34;;;;;;;1.73;1.70;;;;;;;1.62;81.58;94261.66;4302889;32;20292;-63
2023/01/19 00:44:46;;;;;;;1.58;1.58;;;;;;;1.75;80.44;94270.00;4336035;32;20220;-64
2023/01/19 00:47:12;;;;;;;2.27;2.10;;;;;;;1.80;80.22;94260.34;4322846;32;20194;-64
2023/01/19 00:49:39;;;;;;;1.48;1.48;;;;;;;1.79;80.22;94269.22;4344200;32;20193;-63
2023/01/19 00:52:05;;;;;;;1.85;1.80;;;;;;;1.86;79.99;94272.34;4324721;32;20189;-63
2023/01/19 00:54:31;;;;;;;0.97;0.97;;;;;;;1.86;80.34;94271.56;4306675;33;20272;-63
2023/01/19 00:56:59;;;;;;;1.57;1.57;;;;;;;2.00;80.25;94268.13;4333843;32;20208;-63
2023/01/19 00:59:27;;;;;;;2.73;2.63;;;;;;;2.02;80.17;94271.25;4335384;32;20350;-64
2023/01/19 01:01:53;;;;;;;1.57;1.57;;;;;;;1.89;80.35;94269.19;4297406;33;20278;-63
2023/01/19 01:04:19;;;;;;;2.00;2.00;;;;;;;2.03;80.80;94270.22;4336167;32;20319;-63
2023/01/19 01:06:47;;;;;;;3.20;1.52;;;;;;;1.70;82.30;94278.63;4314399;32;20299;-63
2023/01/19 01:09:15;;;;;;;2.73;2.57;;;;;;;1.89;81.72;94274.41;4336530;32;20284;-64
2023/01/19 01:11:45;;;;;;;2.58;1.73;;;;;;;1.79;82.30;94278.91;4304215;33;20294;-63
2023/01/19 01:14:12;;;;;;;1.48;1.15;;;;;;;1.61;82.62;94283.63;4302591;33;20272;-63
2023/01/19 01:16:37;;;;;;;2.67;1.87;;;;;;;1.66;82.51;94282.84;4306249;32;20193;-63
2023/01/19 01:19:03;;;;;;;1.93;1.83;;;;;;;1.73;82.76;94284.13;4329839;32;20194;-63
2023/01/19 01:21:28;;;;;;;1.83;1.00;;;;;;;1.48;82.12;94288.56;4304214;33;20260;-64
2023/01/19 01:23:54;;;;;;;1.57;1.47;;;;;;;1.54;81.96;94293.53;4315716;32;20198;-63
2023/01/19 01:26:21;;;;;;;1.27;1.27;;;;;;;1.66;82.87;94291.44;4326156;32;20215;-64
2023/01/19 01:28:47;;;;;;;1.37;1.37;;;;;;;1.71;82.91;94291.44;4327355;32;20206;-63
2023/01/19 01:31:13;;;;;;;1.30;1.30;;;;;;;1.63;83.05;94299.03;4332088;32;20289;-64
2023/01/19 01:33:43;;;;;;;0.70;0.70;;;;;;;1.44;83.78;94301.41;4346401;32;20189;-63
2023/01/19 01:36:10;;;;;;;1.25;1.25;;;;;;;1.49;83.51;94290.94;4318916;32;20277;-63
2023/01/19 01:38:41;;;;;;;0.93;0.93;;;;;;;1.41;83.89;94303.75;4337901;32;20201;-63
2023/01/19 01:41:07;;;;;;;1.30;1.30;;;;;;;1.40;84.61;94308.19;4314961;32;20205;-64
2023/01/19 01:43:48;;;;;;;1.42;1.35;;;;;;;1.21;85.59;94317.56;4316107;32;20295;-64
2023/01/19 01:46:16;;;;;;;1.45;1.30;;;;;;;1.39;85.56;94314.47;4325461;32;20249;-64
2023/01/19 01:48:54;;;;;;;1.25;1.25;;;;;;;1.41;84.50;94314.19;4340008;32;20192;-64
2023/01/19 01:51:29;;;;;;;0.62;0.62;;;;;;;1.42;85.02;94313.16;4311255;32;20243;-64
2023/01/19 01:54:05;;;;;;;1.00;1.00;;;;;;;1.49;85.05;94319.66;4333533;32;20212;-64
2023/01/19 01:57:01;;;;;;;1.10;1.10;;;;;;;1.35;85.50;94316.81;4307282;32;20189;-64
2023/01/19 01:59:38;;;;;;;0.93;0.93;;;;;;;1.64;84.66;94321.53;4311682;32;20292;-63
2023/01/19 02:05:06;;;;;;;2.67;2.45;;;;;;;1.53;84.68;94322.56;4340973;32;20211;-63
2023/01/19 02:13:37;;;;;;;1.62;1.52;;;;;;;1.37;84.68;94322.56;4322961;32;20295;-63
2023/01/19 02:16:11;;;;;;;1.10;1.10;;;;;;;1.45;84.37;94323.09;4299669;32;20275;-64
2023/01/19 02:18:37;;;;;;;1.50;1.40;;;;;;;1.50;84.78;94330.91;4331714;32;20185;-64
2023/01/19 02:21:24;;;;;;;0.87;0.87;;;;;;;1.57;84.14;94328.81;4343581;32;20231;-64
2023/01/19 02:24:06;;;;;;;1.45;1.40;;;;;;;1.42;84.04;94321.78;4319877;32;20237;-64
2023/01/19 02:26:38;;;;;;;2.58;0.77;;;;;;;1.53;83.90;94335.63;4318331;32;20244;-64
2023/01/19 02:29:13;;;;;;;0.98;0.98;;;;;;;1.26;85.44;94334.00;4348937;32;20265;-64
2023/01/19 02:31:47;;;;;;;2.05;1.95;;;;;;;1.30;85.47;94337.69;4344560;32;20184;-64
2023/01/19 02:34:18;;;;;;;1.95;1.85;;;;;;;1.35;85.24;94340.31;4341451;32;20205;-65
2023/01/19 02:37:05;;;;;;;1.95;1.42;;;;;;;1.51;84.21;94335.09;4336243;32;20193;-65
2023/01/19 02:39:36;;;;;;;1.17;1.17;;;;;;;1.54;83.87;94337.97;4311888;33;20225;-64
2023/01/19 02:42:07;;;;;;;1.20;1.20;;;;;;;1.47;83.91;94341.88;4312189;33;20230;-64
2023/01/19 02:44:38;;;;;;;0.98;0.98;;;;;;;1.48;83.83;94352.06;4308930;32;20269;-63
2023/01/19 02:47:04;;;;;;;0.97;0.97;;;;;;;1.39;83.70;94348.41;4322519;32;20201;-64
2023/01/19 02:49:30;;;;;;;1.40;1.33;;;;;;;1.38;83.06;94357.31;4335265;32;20285;-64
2023/01/19 02:51:59;;;;;;;1.52;1.52;;;;;;;1.22;83.82;94364.34;4332820;32;20185;-64
2023/01/19 02:54:51;;;;;;;1.23;1.23;;;;;;;1.11;84.14;94356.72;4319180;32;20181;-63
2023/01/19 02:57:38;;;;;;;0.65;0.65;;;;;;;1.13;84.28;94357.25;4305223;32;20212;-64
2023/01/19 03:00:45;;;;;;;1.15;1.05;;;;;;;0.91;85.10;94360.06;4297535;33;20277;-64
2023/01/19 03:03:29;;;;;;;1.00;1.00;;;;;;;1.23;84.33;94360.69;4254964;33;20312;-64
2023/01/19 03:06:14;;;;;;;1.12;0.73;;;;;;;1.28;83.64;94363.28;4273712;33;20205;-64
2023/01/19 03:09:04;;;;;;;1.12;1.12;;;;;;;1.41;83.01;94358.59;4302320;33;20272;-63
2023/01/19 03:11:41;;;;;;;0.37;0.37;;;;;;;1.32;82.31;94369.56;4303976;32;20182;-63
2023/01/19 03:14:17;;;;;;;0.77;0.77;;;;;;;1.32;81.81;94366.94;4320440;32;20258;-64
2023/01/19 03:16:54;;;;;;;0.50;0.50;;;;;;;1.33;82.20;94359.91;4307074;32;20203;-65
2023/01/19 03:19:33;;;;;;;1.00;1.00;;;;;;;1.28;82.95;94341.59;4321474;32;20190;-63
2023/01/19 03:22:06;;;;;;;1.62;1.10;;;;;;;1.20;83.51;94340.28;4281664;33;20198;-63
2023/01/19 03:24:36;;;;;;;1.25;1.25;;;;;;;1.26;83.64;94346.28;4317826;32;20408;-63
2023/01/19 03:27:09;;;;;;;0.80;0.80;;;;;;;1.20;83.53;94350.75;4298844;32;20296;-64
2023/01/19 03:29:37;;;;;;;1.00;0.85;;;;;;;1.10;83.53;94342.09;4325582;32;20284;-64
2023/01/19 03:32:09;;;;;;;2.12;2.03;;;;;;;1.11;84.26;94352.28;4308687;32;20241;-63
2023/01/19 03:34:38;;;;;;;1.20;1.20;;;;;;;1.18;83.62;94347.59;4313447;32;20295;-64
2023/01/19 03:37:06;;;;;;;1.00;1.00;;;;;;;1.15;84.00;94350.72;4252636;33;20191;-64
2023/01/19 03:39:32;;;;;;;0.55;0.55;;;;;;;1.19;84.08;94354.41;4284827;33;20356;-64
2023/01/19 03:42:06;;;;;;;0.95;0.95;;;;;;;1.33;83.30;94352.84;4306865;32;20296;-64
2023/01/19 03:44:36;;;;;;;0.70;0.70;;;;;;;1.18;83.66;94362.50;4324055;32;20519;-64
2023/01/19 03:47:03;;;;;;;1.27;1.27;;;;;;;1.18;83.67;94362.50;4307017;33;22356;-64
2023/01/19 03:49:30;;;;;;;1.10;1.10;;;;;;;1.10;84.10;94355.16;4310359;32;20287;-63
2023/01/19 03:51:58;;;;;;;0.62;0.62;;;;;;;0.99;84.36;94355.13;4318851;32;20198;-64
2023/01/19 03:54:25;;;;;;;1.20;1.15;;;;;;;1.19;83.87;94356.22;4306924;32;20190;-64
2023/01/19 03:56:52;;;;;;;1.55;1.45;;;;;;;1.14;83.71;94357.00;4323225;33;20205;-64
2023/01/19 03:59:18;;;;;;;1.75;1.70;;;;;;;1.07;83.87;94360.87;4300205;33;20236;-64
2023/01/19 04:01:44;;;;;;;0.93;0.93;;;;;;;0.95;83.73;94368.94;4324768;32;20272;-64
2023/01/19 04:04:12;;;;;;;1.67;1.65;;;;;;;1.01;83.52;94365.31;4325558;33;20197;-64
2023/01/19 04:06:38;;;;;;;1.35;1.35;;;;;;;0.85;84.25;94371.50;4316790;33;20185;-64
2023/01/19 04:09:06;;;;;;;2.50;0.98;;;;;;;1.06;83.86;94370.53;4310201;32;20194;-64
2023/01/19 04:11:33;;;;;;;0.73;0.73;;;;;;;1.09;83.48;94372.62;4311245;32;20269;-64
2023/01/19 04:14:00;;;;;;;0.80;0.80;;;;;;;1.28;82.76;94362.50;4320665;32;20200;-64
2023/01/19 04:16:28;;;;;;;1.50;1.40;;;;;;;1.39;82.56;94369.31;4316497;32;20243;-64
2023/01/19 04:18:54;;;;;;;1.48;1.40;;;;;;;1.11;82.91;94370.56;4285653;33;20206;-64
2023/01/19 04:21:21;;;;;;;2.03;1.93;;;;;;;1.02;83.02;94369.50;4327975;32;20259;-64
2023/01/19 04:23:51;;;;;;;1.08;1.08;;;;;;;1.12;82.90;94364.28;4340221;32;20261;-64
2023/01/19 04:26:18;;;;;;;1.25;1.25;;;;;;;1.17;82.42;94358.31;4309678;32;20201;-64
2023/01/19 04:28:44;;;;;;;2.78;1.73;;;;;;;1.11;82.61;94367.16;4330652;32;20241;-64
2023/01/19 04:31:10;;;;;;;1.00;1.00;;;;;;;1.12;82.38;94358.28;4328227;32;20197;-64
2023/01/19 04:33:35;;;;;;;1.90;1.80;;;;;;;0.96;83.64;94362.69;4331860;32;20216;-64
2023/01/19 04:36:02;;;;;;;1.03;1.03;;;;;;;1.11;83.00;94359.31;4302288;33;21681;-64
2023/01/19 04:38:30;;;;;;;1.55;1.55;;;;;;;1.01;83.07;94357.50;4316315;32;20236;-64
2023/01/19 04:40:55;;;;;;;1.02;0.82;;;;;;;0.99;83.52;94364.78;4314212;33;20213;-64
2023/01/19 04:43:22;;;;;;;5.30;1.43;;;;;;;1.04;82.70;94368.19;4333902;32;20294;-64
2023/01/19 04:45:48;;;;;;;3.40;1.95;;;;;;;0.95;82.94;94368.94;4331665;32;20196;-64
2023/01/19 04:48:13;;;;;;;1.62;1.62;;;;;;;0.83;83.71;94366.53;4323459;32;20240;-64
2023/01/19 04:50:41;;;;;;;0.83;0.83;;;;;;;0.91;83.23;94373.12;4308043;32;20197;-64
2023/01/19 04:53:12;;;;;;;1.33;1.33;;;;;;;0.81;83.53;94375.69;4328803;32;20200;-64
2023/01/19 04:55:38;;;;;;;1.35;1.30;;;;;;;0.84;82.83;94372.56;4329443;32;20186;-64
2023/01/19 04:58:03;;;;;;;1.03;1.03;;;;;;;0.75;83.16;94374.09;4319540;32;20357;-64
2023/01/19 05:00:29;;;;;;;0.90;0.90;;;;;;;0.72;83.74;94374.59;4300280;33;20200;-64
2023/01/19 05:02:54;;;;;;;1.33;1.33;;;;;;;0.89;83.25;94369.97;4307799;32;20210;-64
2023/01/19 05:05:20;;;;;;;7.10;1.83;;;;;;;0.92;82.30;94379.91;4286806;32;20241;-63
2023/01/19 05:07:47;;;;;;;2.17;1.98;;;;;;;1.00;81.97;94376.81;4328981;32;20204;-64
2023/01/19 05:10:12;;;;;;;2.42;1.58;;;;;;;0.94;82.24;94385.66;4313756;32;20208;-64
2023/01/19 05:12:38;;;;;;;1.53;1.53;;;;;;;0.87;82.54;94378.06;4307106;32;20197;-63
2023/01/19 05:15:08;;;;;;;2.70;2.47;;;;;;;0.94;82.31;94383.03;4325837;32;20306;-63
2023/01/19 05:17:35;;;;;;;1.15;1.15;;;;;;;1.16;81.32;94385.47;4335654;32;20186;-63
2023/01/19 05:20:03;;;;;;;2.53;2.40;;;;;;;1.22;80.68;94394.88;4330978;32;20189;-63
2023/01/19 05:22:28;;;;;;;2.95;1.98;;;;;;;0.94;81.67;94396.09;4335431;32;20220;-63
2023/01/19 05:24:55;;;;;;;0.80;0.80;;;;;;;0.97;81.93;94398.19;4320993;32;20193;-64
2023/01/19 05:27:20;;;;;;;1.58;1.48;;;;;;;0.72;82.49;94398.09;4339529;32;20207;-66
2023/01/19 05:29:48;;;;;;;1.50;1.50;;;;;;;0.78;83.03;94400.47;4308363;32;20198;-66
2023/01/19 05:32:13;;;;;;;1.62;1.62;;;;;;;1.02;82.23;94406.06;4325857;32;20201;-63
2023/01/19 05:34:40;;;;;;;1.70;1.37;;;;;;;0.86;82.54;94401.78;4343801;32;20189;-63
2023/01/19 05:37:07;;;;;;;2.17;2.12;;;;;;;0.77;83.37;94398.13;4330470;32;20189;-63
2023/01/19 05:39:35;;;;;;;1.25;1.20;;;;;;;0.67;83.70;94409.28;4303318;33;20321;-63
2023/01/19 05:42:00;;;;;;;0.65;0.65;;;;;;;0.82;82.83;94411.19;4322284;32;20189;-63
2023/01/19 05:44:26;;;;;;;1.77;1.77;;;;;;;0.68;83.35;94410.84;4307805;33;20350;-65
2023/01/19 05:46:53;;;;;;;1.40;1.30;;;;;;;0.60;84.31;94414.75;4311233;32;20293;-64
2023/01/19 05:49:19;;;;;;;1.67;1.67;;;;;;;0.69;83.73;94412.44;4325473;32;20235;-64
2023/01/19 05:51:44;;;;;;;2.07;1.97;;;;;;;0.85;83.50;94413.28;4313490;32;20197;-64
2023/01/19 05:54:14;;;;;;;3.13;2.10;;;;;;;0.85;83.17;94421.09;4334232;32;20204;-64
2023/01/19 05:56:45;;;;;;;2.03;1.80;;;;;;;0.88;83.04;94421.37;4285416;32;20194;-64
2023/01/19 05:59:14;;;;;;;1.60;1.52;;;;;;;0.55;83.96;94421.75;4301831;32;20198;-65
2023/01/19 06:01:40;;;;;;;1.37;1.30;;;;;;;0.67;83.73;94425.72;4294835;33;20242;-63
2023/01/19 06:04:07;;;;;;;1.85;1.83;;;;;;;0.73;83.51;94428.38;4317866;32;20193;-63
2023/01/19 06:06:33;;;;;;;1.50;1.50;;;;;;;0.85;83.41;94429.72;4325059;32;20238;-63
2023/01/19 06:08:58;;;;;;;0.90;0.90;;;;;;;0.83;83.36;94434.41;4340354;32;20312;-63
2023/01/19 06:11:25;;;;;;;0.83;0.83;;;;;;;0.80;84.13;94440.16;4342535;32;20233;-63
2023/01/19 06:13:50;;;;;;;3.50;1.77;;;;;;;0.62;84.62;94441.34;4344030;32;20197;-63
2023/01/19 06:16:15;;;;;;;1.43;1.40;;;;;;;0.72;84.39;94451.06;4311567;32;20205;-63
2023/01/19 06:18:41;;;;;;;0.73;0.73;;;;;;;0.71;83.75;94446.91;4310875;32;20265;-63
2023/01/19 06:21:08;;;;;;;2.50;2.40;;;;;;;0.84;83.85;94449.03;4270230;32;20232;-63
2023/01/19 06:23:37;;;;;;;0.70;0.70;;;;;;;0.77;83.63;94448.50;4328565;32;20201;-63
2023/01/19 06:26:02;;;;;;;1.23;1.23;;;;;;;0.76;83.27;94456.56;4315021;32;20291;-63
2023/01/19 06:28:30;;;;;;;0.77;0.77;;;;;;;0.99;82.55;94448.34;4312322;32;20198;-63
2023/01/19 06:30:56;;;;;;;1.85;1.75;;;;;;;0.79;82.63;94454.25;4296698;32;20257;-63
2023/01/19 06:33:23;;;;;;;1.10;1.10;;;;;;;1.02;81.78;94459.06;4331927;32;20231;-63
2023/01/19 06:35:51;;;;;;;2.92;2.72;;;;;;;0.91;82.11;94456.66;4300975;32;20226;-63
2023/01/19 06:38:21;;;;;;;3.03;2.00;;;;;;;0.79;81.41;94456.88;4186719;32;20209;-63
2023/01/19 06:41:04;;;;;;;2.47;2.37;;;;;;;0.62;81.78;94464.06;4156570;33;20203;-64
2023/01/19 06:43:30;;;;;;;1.12;1.12;;;;;;;0.63;82.37;94455.97;4303640;33;20344;-63
2023/01/19 06:45:56;;;;;;;1.55;1.45;;;;;;;0.54;82.23;94456.72;4319323;32;20237;-63
2023/01/19 06:48:22;;;;;;;1.03;1.03;;;;;;;0.38;82.97;94461.06;4310276;32;20239;-63
2023/01/19 06:50:48;;;;;;;2.35;2.25;;;;;;;0.59;82.10;94464.56;4311564;32;20197;-63
2023/01/19 06:53:15;;;;;;;1.37;1.37;;;;;;;0.58;81.66;94474.22;4319926;32;20212;-63
2023/01/19 06:55:42;;;;;;;1.05;1.05;;;;;;;0.36;82.48;94481.38;4333787;32;20309;-63
2023/01/19 06:58:09;;;;;;;1.58;1.48;;;;;;;0.37;82.75;94476.94;4332362;32;20212;-63
2023/01/19 07:00:35;;;;;;;1.73;1.63;;;;;;;0.71;81.49;94477.41;4320794;32;20193;-63
2023/01/19 07:03:00;;;;;;;1.40;1.30;;;;;;;0.73;80.95;94476.13;4329353;32;20194;-63
2023/01/19 07:05:26;;;;;;;1.07;1.07;;;;;;;0.64;80.88;94475.03;4292886;32;20194;-63
2023/01/19 07:07:58;;;;;;;2.43;2.33;;;;;;;0.65;80.94;94474.00;4320511;32;20216;-63
2023/01/19 07:10:24;;;;;;;0.95;0.95;;;;;;;0.69;80.24;94488.91;4338543;32;20201;-63
2023/01/19 07:12:50;;;;;;;1.07;1.07;;;;;;;0.70;80.43;94489.69;4345358;32;20220;-63
2023/01/19 07:15:18;;;;;;;1.90;1.80;;;;;;;0.78;80.01;94494.44;4342365;32;20200;-63
2023/01/19 07:17:44;;;;;;;2.15;2.10;;;;;;;0.78;79.65;94498.87;4331637;32;20227;-63
2023/01/19 07:20:14;;;;;;;0.85;0.73;;;;;;;0.73;80.09;94496.22;4313354;32;20198;-63
2023/01/19 07:22:42;;;;;;;1.60;1.60;;;;;;;0.58;79.97;94496.94;4320394;32;20185;-63
2023/01/19 07:25:09;;;;;;;2.42;2.33;;;;;;;0.51;80.23;94499.75;4317063;32;20196;-63
2023/01/19 07:27:35;;;;;;;1.77;1.77;;;;;;;0.32;80.77;94501.16;4322489;32;20264;-63
2023/01/19 07:30:03;;;;;;;0.70;0.70;;;;;;;0.58;79.73;94500.31;4305736;32;20190;-63
2023/01/19 07:32:28;;;;;;;1.75;1.02;;;;;;;0.25;81.39;94500.59;4311054;33;20194;-63
2023/01/19 07:34:55;;;;;;;1.23;1.23;;;;;;;0.57;79.55;94501.34;4329927;32;20192;-63
2023/01/19 07:37:21;;;;;;;1.43;1.43;;;;;;;0.64;79.01;94499.28;4332825;32;20197;-63
2023/01/19 07:39:46;;;;;;;0.50;0.50;;;;;;;0.59;78.76;94509.72;4327463;32;20220;-63
2023/01/19 07:42:12;;;;;;;1.20;1.20;;;;;;;0.72;78.42;94507.69;4315597;32;20204;-63
2023/01/19 07:44:39;;;;;;;2.53;2.35;;;;;;;0.54;78.87;94504.47;4296577;33;20210;-63
2023/01/19 07:47:09;;;;;;;1.10;1.10;;;;;;;0.68;77.43;94513.41;4328381;32;20335;-63
2023/01/19 07:49:36;;;;;;;2.15;2.05;;;;;;;0.73;77.55;94517.09;4321490;32;20295;-63
2023/01/19 07:52:03;;;;;;;2.28;2.17;;;;;;;0.88;77.31;94520.59;4340646;32;20196;-63
2023/01/19 07:54:28;;;;;;;1.12;1.12;;;;;;;0.93;76.48;94523.22;4326351;32;20193;-62
2023/01/19 07:56:57;;;;;;;1.53;1.53;;;;;;;0.95;76.83;94521.16;4321437;32;20216;-60
2023/01/19 07:59:23;;;;;;;2.03;1.92;;;;;;;1.03;75.97;94533.75;4331989;32;20185;-63
2023/01/19 08:01:50;;;;;;;9.43;1.98;;;;;;;1.06;75.84;94527.19;4305817;32;20205;-62
2023/01/19 08:04:22;;;;;;;0.82;0.82;;;;;;;1.01;75.84;94532.41;4289521;32;20204;-63
2023/01/19 08:06:48;;;;;;;1.15;1.15;;;;;;;1.15;75.16;94525.69;4305314;33;20225;-62
2023/01/19 08:09:13;;;;;;;1.55;1.55;;;;;;;1.20;74.58;94533.56;4300796;32;20185;-63
2023/01/19 08:11:39;;;;;;;2.47;2.37;;;;;;;1.20;74.23;94532.78;4345468;32;20193;-62
2023/01/19 08:14:05;;;;;;;2.03;1.93;;;;;;;1.30;74.62;94536.22;4308418;32;20315;-63
2023/01/19 08:16:33;;;;;;;2.22;2.05;;;;;;;1.44;73.34;94538.38;4289469;32;20215;-62
2023/01/19 08:19:00;;;;;;;1.15;1.15;;;;;;;1.28;73.14;94543.50;4321592;32;20212;-62
2023/01/19 08:21:26;;;;;;;1.42;1.17;;;;;;;1.13;73.19;94543.44;4340244;32;20207;-62
2023/01/19 08:23:56;;;;;;;2.03;1.90;;;;;;;1.14;73.45;94550.25;4331711;32;20194;-63
2023/01/19 08:26:28;;;;;;;3.00;2.63;;;;;;;1.41;72.74;94546.72;4311140;32;20216;-62
2023/01/19 08:28:57;;;;;;;3.22;1.85;;;;;;;1.54;72.33;94554.88;4334813;32;20422;-62
2023/01/19 08:31:25;;;;;;;6.78;2.62;;;;;;;1.30;71.61;94553.72;4323903;32;20282;-61
2023/01/19 08:33:51;;;;;;;1.83;1.70;;;;;;;1.33;72.10;94561.81;4301625;32;20218;-62
2023/01/19 08:36:18;;;;;;;2.65;1.75;;;;;;;1.49;72.30;94556.66;4315897;32;20313;-63
2023/01/19 08:38:47;;;;;;;1.17;1.17;;;;;;;1.45;72.13;94560.84;4324804;32;20193;-65
2023/01/19 08:41:17;;;;;;;1.83;1.70;;;;;;;1.67;71.69;94564.03;4314799;32;21220;-64
2023/01/19 08:43:44;;;;;;;1.63;1.20;;;;;;;1.45;71.74;94564.25;4302731;33;20284;-64
2023/01/19 08:46:16;;;;;;;0.82;0.82;;;;;;;1.59;71.36;94562.72;4291633;32;20286;-63
2023/01/19 08:48:50;;;;;;;1.47;1.37;;;;;;;1.74;70.73;94564.59;4283586;33;20214;-64
2023/01/19 08:51:17;;;;;;;1.58;1.48;;;;;;;1.54;71.17;94564.53;4266347;33;20302;-64
2023/01/19 08:53:44;;;;;;;1.50;1.50;;;;;;;1.50;72.17;94563.47;4289992;32;20254;-63
2023/01/19 08:56:12;;;;;;;1.08;1.08;;;;;;;1.80;70.73;94563.59;4277805;32;20201;-63
2023/01/19 08:58:40;;;;;;;2.10;2.00;;;;;;;1.51;70.65;94573.66;4296268;32;20194;-64
2023/01/19 09:01:07;;;;;;;2.23;2.13;;;;;;;1.85;70.69;94571.44;4328326;32;20319;-64
2023/01/19 09:03:34;;;;;;;2.65;2.53;;;;;;;1.67;70.80;94566.66;4300382;32;20356;-64
2023/01/19 09:06:04;;;;;;;1.50;1.50;;;;;;;1.61;70.78;94571.09;4327820;32;20193;-65
2023/01/19 09:08:29;;;;;;;1.93;1.87;;;;;;;1.82;69.91;94569.34;4313732;32;20329;-65
2023/01/19 09:10:56;;;;;;;1.07;1.07;;;;;;;1.90;69.06;94568.03;4315495;33;20324;-65
2023/01/19 09:13:23;;;;;;;1.20;1.20;;;;;;;2.01;69.24;94569.66;4310734;32;20307;-64
2023/01/19 09:15:50;;;;;;;0.98;0.98;;;;;;;1.90;69.30;94566.22;4295373;33;20344;-64
2023/01/19 09:18:18;;;;;;;1.90;1.73;;;;;;;1.91;69.35;94567.78;4317234;32;20250;-64
2023/01/19 09:20:47;;;;;;;1.57;1.47;;;;;;;1.87;69.56;94569.34;4325656;33;20274;-64
2023/01/19 09:23:16;;;;;;;2.43;2.33;;;;;;;1.91;69.37;94573.03;4324292;32;20460;-63
2023/01/19 09:25:44;;;;;;;2.07;1.97;;;;;;;2.01;69.42;94570.44;4307324;32;20289;-63
2023/01/19 09:28:10;;;;;;;1.53;1.43;;;;;;;2.28;68.64;94570.25;4333219;32;20301;-63
2023/01/19 09:30:40;;;;;;;2.57;2.47;;;;;;;2.42;67.41;94570.50;4325503;32;20306;-63
2023/01/19 09:33:10;;;;;;;2.27;2.17;;;;;;;2.70;66.23;94575.22;4302287;33;20297;-64
2023/01/19 09:35:38;;;;;;;1.93;1.83;;;;;;;2.59;65.49;94572.88;4321238;32;20352;-63
2023/01/19 09:38:09;;;;;;;3.60;1.47;;;;;;;2.80;65.42;94576.28;4320226;33;20399;-62
2023/01/19 09:40:40;;;;;;;2.10;2.00;;;;;;;2.59;66.11;94578.09;4338357;32;20321;-63
2023/01/19 09:43:35;;;;;;;1.73;1.63;;;;;;;2.80;66.28;94576.28;4321177;32;20297;-62
2023/01/19 09:46:05;;;;;;;1.83;1.73;;;;;;;2.83;65.45;94571.31;4321645;32;20302;-65
2023/01/19 09:48:57;;;;;;;2.33;2.23;;;;;;;3.11;64.52;94572.59;4326220;32;20328;-64
2023/01/19 09:51:32;;;;;;;1.03;1.03;;;;;;;3.18;64.59;94578.31;4310252;32;20290;-66
2023/01/19 09:54:12;;;;;;;1.60;1.60;;;;;;;2.93;63.37;94581.75;4318560;32;20331;-64
2023/01/19 09:56:39;;;;;;;2.10;1.73;;;;;;;2.56;65.83;94582.03;4305407;32;20365;-64
2023/01/19 09:59:24;;;;;;;1.40;1.40;;;;;;;2.92;64.59;94579.41;4312073;32;20316;-65
2023/01/19 10:01:58;;;;;;;1.30;1.30;;;;;;;3.04;63.98;94578.09;4320619;32;20286;-64
2023/01/19 10:04:29;;;;;;;1.87;1.60;;;;;;;2.96;64.31;94569.97;4325238;32;20287;-63
2023/01/19 10:07:07;;;;;;;1.97;1.70;;;;;;;3.06;63.39;94575.22;4324273;32;20305;-66
2023/01/19 10:10:20;;;;;;;1.13;1.13;;;;;;;2.99;62.92;94567.59;4318947;32;20357;-66
2023/01/19 10:13:12;;;;;;;3.93;1.90;;;;;;;2.95;62.83;94578.88;4253507;33;20360;-65
2023/01/19 10:15:51;;;;;;;3.80;1.97;;;;;;;2.72;63.52;94575.75;4280017;33;20284;-65
2023/01/19 10:18:25;;;;;;;2.10;2.00;;;;;;;2.60;63.66;94583.09;4261972;33;20338;-65
2023/01/19 10:21:10;;;;;;;1.63;1.60;;;;;;;2.52;64.22;94583.59;4271719;33;20291;-65
2023/01/19 10:23:53;;;;;;;1.43;1.33;;;;;;;2.67;63.66;94581.00;4270316;32;20282;-65
2023/01/19 10:26:39;;;;;;;1.57;1.53;;;;;;;2.37;63.56;94579.13;4301413;33;20333;-65
2023/01/19 10:29:20;;;;;;;1.47;1.47;;;;;;;2.44;64.93;94578.09;4303500;33;20341;-65
2023/01/19 10:31:47;;;;;;;2.53;2.43;;;;;;;2.82;63.63;94574.19;4287665;33;20296;-65
2023/01/19 10:34:17;;;;;;;2.17;1.97;;;;;;;2.41;65.19;94574.97;4292723;32;20370;-65
2023/01/19 10:36:47;;;;;;;1.77;1.73;;;;;;;2.61;64.37;94579.41;4275656;33;20385;-65
2023/01/19 10:39:15;;;;;;;2.00;1.90;;;;;;;2.71;63.96;94573.38;4326316;32;20497;-65
2023/01/19 10:41:54;;;;;;;1.30;1.30;;;;;;;3.20;61.88;94580.69;4303641;33;20289;-65
2023/01/19 10:44:26;;;;;;;2.17;2.07;;;;;;;3.01;61.45;94572.59;4327486;33;20333;-65
2023/01/19 10:46:56;;;;;;;1.77;1.67;;;;;;;2.82;61.85;94587.28;4321030;33;20326;-65
2023/01/19 10:49:38;;;;;;;2.07;1.97;;;;;;;2.97;61.48;94579.41;4308393;33;20321;-66
2023/01/19 10:52:06;;;;;;;1.37;1.33;;;;;;;3.01;61.29;94567.34;4290720;33;20326;-65
2023/01/19 10:54:35;;;;;;;1.57;1.50;;;;;;;3.18;61.02;94561.81;4312398;33;20293;-66
2023/01/19 10:57:03;;;;;;;1.93;1.57;;;;;;;3.29;61.56;94558.13;4313904;33;20381;-66
2023/01/19 10:59:53;;;;;;;0.70;0.70;;;;;;;3.34;59.95;94561.50;4313661;33;20282;-66
2023/01/19 11:02:30;;;;;;;1.70;1.63;;;;;;;3.31;59.55;94564.69;4311261;33;20286;-65
2023/01/19 11:04:59;;;;;;;1.07;1.07;;;;;;;3.58;59.28;94556.44;4307300;33;20290;-66
2023/01/19 11:07:32;;;;;;;1.07;1.07;;;;;;;3.76;57.49;94555.84;4318806;32;20340;-66
2023/01/19 11:10:26;;;;;;;1.70;1.60;;;;;;;3.77;57.47;94561.88;4310917;33;20270;-65
2023/01/19 11:13:00;;;;;;;1.10;1.10;;;;;;;3.79;57.38;94560.56;4314174;32;20299;-65
2023/01/19 11:15:41;;;;;;;1.70;1.60;;;;;;;3.26;58.23;94566.53;4302867;32;20305;-66
2023/01/19 11:18:21;;;;;;;1.10;1.10;;;;;;;3.24;58.23;94558.94;4336585;32;20287;-65
2023/01/19 11:20:52;;;;;;;2.77;1.00;;;;;;;3.66;57.08;94552.50;4302942;33;20314;-64
2023/01/19 11:23:43;;;;;;;0.73;0.60;;;;;;;3.88;55.82;94558.16;4308606;33;20291;-64
2023/01/19 11:26:25;;;;;;;0.40;0.40;;;;;;;5.05;72.57;94546.81;4310857;32;20306;-65
2023/01/19 11:28:53;;;;;;;0.90;0.90;;;;;;;5.76;62.33;94540.81;4317825;32;20282;-65
2023/01/19 11:31:34;;;;;;;0.80;0.80;;;;;;;6.06;58.53;94540.44;4327835;32;20294;-65
2023/01/19 11:34:04;;;;;;;1.40;0.97;;;;;;;6.60;58.73;94539.16;4338264;32;20278;-65
2023/01/19 11:36:35;;;;;;;0.40;0.40;;;;;;;7.04;61.95;94538.69;4320127;32;20290;-65
2023/01/19 11:39:26;;;;;;;1.30;1.30;;;;;;;7.13;60.61;94541.44;4326345;32;20397;-65
2023/01/19 11:42:16;;;;;;;0.10;0.10;;;;;;;7.40;60.47;94532.78;4316211;33;20283;-64
2023/01/19 11:45:04;;;;;;;0.77;0.77;;;;;;;7.34;52.66;94529.44;4322813;32;20333;-66
2023/01/19 11:47:59;;;;;;;1.07;0.80;;;;;;;6.97;50.02;94540.91;4333139;32;20289;-63
2023/01/19 11:50:40;;;;;;;0.40;0.40;;;;;;;6.07;48.90;94534.09;4328742;32;20361;-65
2023/01/19 11:53:24;;;;;;;0.57;0.57;;;;;;;5.35;50.09;94533.38;4308983;32;20321;-62
2023/01/19 11:56:05;;;;;;;0.97;0.97;;;;;;;4.69;52.02;94527.97;4315890;32;20316;-63
2023/01/19 11:58:36;;;;;;;0.73;0.73;;;;;;;4.43;52.76;94532.62;4301806;32;20329;-62
2023/01/19 12:01:24;;;;;;;0.90;0.90;;;;;;;4.11;54.20;94539.16;4301219;32;20291;-66
2023/01/19 12:04:13;;;;;;;0.53;0.53;;;;;;;4.20;53.91;94535.94;4330827;32;20313;-63
2023/01/19 12:06:46;;;;;;;0.57;0.57;;;;;;;4.27;53.35;94518.84;4316392;32;20293;-64
2023/01/19 12:09:33;;;;;;;0.37;0.37;;;;;;;4.00;53.80;94529.75;4296382;32;20318;-63